sensor_id;sensor_type;location;lat;lon;timestamp;P1;durP1;ratioP1;P2;durP2;ratioP2
51523;SDS011;37610;51.790;21.590;2023-02-08T00:00:38;152.60;;;52.60;;
51523;SDS011;37610;51.790;21.590;2023-02-08T00:04:57;117.70;;;43.30;;
51523;SDS011;37610;51.790;21.590;2023-02-08T00:08:59;113.00;;;46.60;;
51523;SDS011;37610;51.790;21.590;2023-02-08T00:13:01;174.40;;;56.80;;
51523;SDS011;37610;51.790;21.590;2023-02-08T00:17:03;299.80;;;76.40;;
51523;SDS011;37610;51.790;21.590;2023-02-08T00:21:08;146.20;;;48.00;;
51523;SDS011;37610;51.790;21.590;2023-02-08T00:25:10;190.90;;;56.10;;
51523;SDS011;37610;51.790;21.590;2023-02-08T00:29:11;282.10;;;76.30;;
51523;SDS011;37610;51.790;21.590;2023-02-08T00:33:13;236.30;;;68.10;;
51523;SDS011;37610;51.790;21.590;2023-02-08T00:37:14;221.80;;;60.30;;
51523;SDS011;37610;51.790;21.590;2023-02-08T00:41:16;155.50;;;47.90;;
51523;SDS011;37610;51.790;21.590;2023-02-08T00:45:18;117.00;;;41.30;;
51523;SDS011;37610;51.790;21.590;2023-02-08T00:49:20;90.70;;;39.60;;
51523;SDS011;37610;51.790;21.590;2023-02-08T00:53:21;130.40;;;52.80;;
51523;SDS011;37610;51.790;21.590;2023-02-08T00:57:23;102.10;;;42.40;;
51523;SDS011;37610;51.790;21.590;2023-02-08T01:01:24;79.00;;;36.90;;
51523;SDS011;37610;51.790;21.590;2023-02-08T01:05:26;95.70;;;39.40;;
51523;SDS011;37610;51.790;21.590;2023-02-08T01:09:27;77.70;;;33.20;;
51523;SDS011;37610;51.790;21.590;2023-02-08T01:13:29;81.50;;;35.70;;
51523;SDS011;37610;51.790;21.590;2023-02-08T01:17:30;81.20;;;37.00;;
51523;SDS011;37610;51.790;21.590;2023-02-08T01:21:33;86.40;;;37.20;;
51523;SDS011;37610;51.790;21.590;2023-02-08T01:25:34;71.90;;;34.90;;
51523;SDS011;37610;51.790;21.590;2023-02-08T01:29:36;59.40;;;30.60;;
51523;SDS011;37610;51.790;21.590;2023-02-08T01:33:37;58.80;;;28.00;;
51523;SDS011;37610;51.790;21.590;2023-02-08T01:37:39;65.30;;;29.20;;
51523;SDS011;37610;51.790;21.590;2023-02-08T01:41:41;66.50;;;31.90;;
51523;SDS011;37610;51.790;21.590;2023-02-08T01:45:44;60.30;;;28.60;;
51523;SDS011;37610;51.790;21.590;2023-02-08T01:49:45;61.50;;;28.60;;
51523;SDS011;37610;51.790;21.590;2023-02-08T01:53:47;64.20;;;32.50;;
51523;SDS011;37610;51.790;21.590;2023-02-08T01:57:55;68.80;;;32.60;;
51523;SDS011;37610;51.790;21.590;2023-02-08T02:01:59;58.90;;;28.70;;
51523;SDS011;37610;51.790;21.590;2023-02-08T02:06:11;54.60;;;27.40;;
51523;SDS011;37610;51.790;21.590;2023-02-08T02:10:15;45.10;;;22.60;;
51523;SDS011;37610;51.790;21.590;2023-02-08T02:14:18;48.10;;;22.90;;
51523;SDS011;37610;51.790;21.590;2023-02-08T02:18:24;37.10;;;17.30;;
51523;SDS011;37610;51.790;21.590;2023-02-08T02:22:43;29.90;;;16.00;;
51523;SDS011;37610;51.790;21.590;2023-02-08T02:35:14;28.00;;;13.30;;
51523;SDS011;37610;51.790;21.590;2023-02-08T02:39:25;30.60;;;13.80;;
51523;SDS011;37610;51.790;21.590;2023-02-08T02:43:41;26.80;;;14.80;;
51523;SDS011;37610;51.790;21.590;2023-02-08T02:52:10;24.90;;;14.00;;
51523;SDS011;37610;51.790;21.590;2023-02-08T02:56:14;21.10;;;12.00;;
51523;SDS011;37610;51.790;21.590;2023-02-08T03:00:19;20.20;;;10.50;;
51523;SDS011;37610;51.790;21.590;2023-02-08T03:13:05;17.60;;;9.20;;
51523;SDS011;37610;51.790;21.590;2023-02-08T03:33:51;31.60;;;14.60;;
51523;SDS011;37610;51.790;21.590;2023-02-08T03:38:02;35.90;;;16.10;;
51523;SDS011;37610;51.790;21.590;2023-02-08T03:42:07;45.50;;;18.60;;
51523;SDS011;37610;51.790;21.590;2023-02-08T03:46:15;31.80;;;12.70;;
51523;SDS011;37610;51.790;21.590;2023-02-08T03:50:17;25.20;;;11.00;;
51523;SDS011;37610;51.790;21.590;2023-02-08T03:54:22;20.10;;;9.90;;
51523;SDS011;37610;51.790;21.590;2023-02-08T03:58:25;19.30;;;7.80;;
51523;SDS011;37610;51.790;21.590;2023-02-08T04:02:32;14.90;;;8.70;;
51523;SDS011;37610;51.790;21.590;2023-02-08T04:06:35;20.20;;;8.00;;
51523;SDS011;37610;51.790;21.590;2023-02-08T04:10:36;14.40;;;7.40;;
51523;SDS011;37610;51.790;21.590;2023-02-08T04:14:38;43.50;;;16.90;;
51523;SDS011;37610;51.790;21.590;2023-02-08T04:18:39;43.20;;;15.10;;
51523;SDS011;37610;51.790;21.590;2023-02-08T04:22:41;70.10;;;22.70;;
51523;SDS011;37610;51.790;21.590;2023-02-08T04:26:42;73.70;;;22.90;;
51523;SDS011;37610;51.790;21.590;2023-02-08T04:30:44;41.00;;;16.70;;
51523;SDS011;37610;51.790;21.590;2023-02-08T04:34:45;33.90;;;14.60;;
51523;SDS011;37610;51.790;21.590;2023-02-08T04:38:47;39.50;;;14.10;;
51523;SDS011;37610;51.790;21.590;2023-02-08T04:42:48;30.30;;;11.30;;
51523;SDS011;37610;51.790;21.590;2023-02-08T04:46:50;21.60;;;9.50;;
51523;SDS011;37610;51.790;21.590;2023-02-08T04:50:55;16.90;;;9.40;;
51523;SDS011;37610;51.790;21.590;2023-02-08T04:54:57;21.60;;;10.90;;
51523;SDS011;37610;51.790;21.590;2023-02-08T04:58:59;28.60;;;12.80;;
51523;SDS011;37610;51.790;21.590;2023-02-08T05:03:01;23.60;;;11.80;;
51523;SDS011;37610;51.790;21.590;2023-02-08T05:07:02;32.50;;;16.90;;
51523;SDS011;37610;51.790;21.590;2023-02-08T05:11:04;60.10;;;26.50;;
51523;SDS011;37610;51.790;21.590;2023-02-08T05:15:05;66.50;;;32.30;;
51523;SDS011;37610;51.790;21.590;2023-02-08T05:19:08;90.40;;;48.60;;
51523;SDS011;37610;51.790;21.590;2023-02-08T05:23:10;70.00;;;37.00;;
51523;SDS011;37610;51.790;21.590;2023-02-08T05:27:11;27.80;;;14.50;;
51523;SDS011;37610;51.790;21.590;2023-02-08T05:31:14;53.40;;;18.40;;
51523;SDS011;37610;51.790;21.590;2023-02-08T05:35:17;35.40;;;13.30;;
51523;SDS011;37610;51.790;21.590;2023-02-08T05:39:18;26.40;;;10.40;;
51523;SDS011;37610;51.790;21.590;2023-02-08T05:43:20;26.20;;;10.60;;
51523;SDS011;37610;51.790;21.590;2023-02-08T05:47:21;23.10;;;8.70;;
51523;SDS011;37610;51.790;21.590;2023-02-08T05:51:23;17.30;;;7.90;;
51523;SDS011;37610;51.790;21.590;2023-02-08T05:55:24;27.60;;;10.60;;
51523;SDS011;37610;51.790;21.590;2023-02-08T05:59:27;29.30;;;13.60;;
51523;SDS011;37610;51.790;21.590;2023-02-08T06:03:29;47.70;;;20.90;;
51523;SDS011;37610;51.790;21.590;2023-02-08T06:07:30;86.20;;;36.70;;
51523;SDS011;37610;51.790;21.590;2023-02-08T06:11:32;53.30;;;20.90;;
51523;SDS011;37610;51.790;21.590;2023-02-08T06:15:34;44.70;;;17.60;;
51523;SDS011;37610;51.790;21.590;2023-02-08T06:19:35;33.00;;;16.30;;
51523;SDS011;37610;51.790;21.590;2023-02-08T06:23:37;28.70;;;14.10;;
51523;SDS011;37610;51.790;21.590;2023-02-08T06:27:38;46.40;;;23.20;;
51523;SDS011;37610;51.790;21.590;2023-02-08T06:31:40;59.00;;;23.10;;
51523;SDS011;37610;51.790;21.590;2023-02-08T06:35:45;50.00;;;23.00;;
51523;SDS011;37610;51.790;21.590;2023-02-08T06:39:46;77.80;;;34.70;;
51523;SDS011;37610;51.790;21.590;2023-02-08T06:43:48;130.80;;;53.10;;
51523;SDS011;37610;51.790;21.590;2023-02-08T06:47:49;82.70;;;35.70;;
51523;SDS011;37610;51.790;21.590;2023-02-08T06:51:51;38.60;;;22.70;;
51523;SDS011;37610;51.790;21.590;2023-02-08T06:55:52;49.70;;;22.20;;
51523;SDS011;37610;51.790;21.590;2023-02-08T06:59:54;93.80;;;36.80;;
51523;SDS011;37610;51.790;21.590;2023-02-08T07:03:55;85.20;;;35.40;;
51523;SDS011;37610;51.790;21.590;2023-02-08T07:07:57;63.00;;;31.60;;
51523;SDS011;37610;51.790;21.590;2023-02-08T07:11:58;56.50;;;28.40;;
51523;SDS011;37610;51.790;21.590;2023-02-08T07:16:03;81.80;;;38.10;;
51523;SDS011;37610;51.790;21.590;2023-02-08T07:20:05;54.10;;;27.10;;
51523;SDS011;37610;51.790;21.590;2023-02-08T07:24:06;71.30;;;31.30;;
51523;SDS011;37610;51.790;21.590;2023-02-08T07:28:08;68.00;;;26.50;;
51523;SDS011;37610;51.790;21.590;2023-02-08T07:32:09;90.40;;;33.50;;
51523;SDS011;37610;51.790;21.590;2023-02-08T07:36:11;100.20;;;36.00;;
51523;SDS011;37610;51.790;21.590;2023-02-08T07:40:13;62.90;;;26.50;;
51523;SDS011;37610;51.790;21.590;2023-02-08T07:44:14;54.90;;;23.60;;
51523;SDS011;37610;51.790;21.590;2023-02-08T07:48:16;36.70;;;18.20;;
51523;SDS011;37610;51.790;21.590;2023-02-08T07:52:17;40.80;;;20.70;;
51523;SDS011;37610;51.790;21.590;2023-02-08T07:56:19;30.00;;;15.60;;
51523;SDS011;37610;51.790;21.590;2023-02-08T08:00:20;28.50;;;14.80;;
51523;SDS011;37610;51.790;21.590;2023-02-08T08:04:22;30.20;;;15.30;;
51523;SDS011;37610;51.790;21.590;2023-02-08T08:08:23;29.60;;;14.20;;
51523;SDS011;37610;51.790;21.590;2023-02-08T08:12:25;54.70;;;21.00;;
51523;SDS011;37610;51.790;21.590;2023-02-08T08:16:26;90.30;;;24.70;;
51523;SDS011;37610;51.790;21.590;2023-02-08T08:20:28;44.10;;;16.60;;
51523;SDS011;37610;51.790;21.590;2023-02-08T08:24:29;39.10;;;15.00;;
51523;SDS011;37610;51.790;21.590;2023-02-08T08:28:32;68.10;;;23.80;;
51523;SDS011;37610;51.790;21.590;2023-02-08T08:32:33;48.00;;;18.60;;
51523;SDS011;37610;51.790;21.590;2023-02-08T08:36:35;46.20;;;22.00;;
51523;SDS011;37610;51.790;21.590;2023-02-08T08:40:36;57.80;;;27.10;;
51523;SDS011;37610;51.790;21.590;2023-02-08T08:44:37;46.30;;;23.40;;
51523;SDS011;37610;51.790;21.590;2023-02-08T08:48:40;36.30;;;20.80;;
51523;SDS011;37610;51.790;21.590;2023-02-08T08:52:41;61.40;;;34.20;;
51523;SDS011;37610;51.790;21.590;2023-02-08T08:56:43;52.70;;;25.70;;
51523;SDS011;37610;51.790;21.590;2023-02-08T09:00:44;35.40;;;18.60;;
51523;SDS011;37610;51.790;21.590;2023-02-08T09:04:46;41.00;;;20.80;;
51523;SDS011;37610;51.790;21.590;2023-02-08T09:08:47;44.40;;;21.40;;
51523;SDS011;37610;51.790;21.590;2023-02-08T09:12:49;39.00;;;20.10;;
51523;SDS011;37610;51.790;21.590;2023-02-08T09:16:53;31.70;;;16.30;;
51523;SDS011;37610;51.790;21.590;2023-02-08T09:20:54;36.60;;;19.10;;
51523;SDS011;37610;51.790;21.590;2023-02-08T09:24:56;27.90;;;16.50;;
51523;SDS011;37610;51.790;21.590;2023-02-08T09:28:57;32.20;;;18.90;;
51523;SDS011;37610;51.790;21.590;2023-02-08T09:32:59;33.00;;;17.70;;
51523;SDS011;37610;51.790;21.590;2023-02-08T09:37:00;28.20;;;15.00;;
51523;SDS011;37610;51.790;21.590;2023-02-08T09:49:27;24.60;;;13.20;;
51523;SDS011;37610;51.790;21.590;2023-02-08T09:53:32;37.20;;;19.70;;
51523;SDS011;37610;51.790;21.590;2023-02-08T09:57:35;40.40;;;21.70;;
51523;SDS011;37610;51.790;21.590;2023-02-08T10:01:37;34.90;;;19.50;;
51523;SDS011;37610;51.790;21.590;2023-02-08T10:05:38;25.70;;;13.80;;
51523;SDS011;37610;51.790;21.590;2023-02-08T10:09:40;26.00;;;15.30;;
51523;SDS011;37610;51.790;21.590;2023-02-08T10:13:43;43.00;;;17.50;;
51523;SDS011;37610;51.790;21.590;2023-02-08T10:26:36;36.30;;;19.00;;
51523;SDS011;37610;51.790;21.590;2023-02-08T10:30:44;26.60;;;15.20;;
51523;SDS011;37610;51.790;21.590;2023-02-08T10:34:57;25.50;;;14.70;;
51523;SDS011;37610;51.790;21.590;2023-02-08T10:39:01;25.50;;;14.10;;
51523;SDS011;37610;51.790;21.590;2023-02-08T10:51:16;35.70;;;22.40;;
51523;SDS011;37610;51.790;21.590;2023-02-08T10:55:19;31.70;;;16.40;;
51523;SDS011;37610;51.790;21.590;2023-02-08T10:59:23;15.10;;;9.00;;
51523;SDS011;37610;51.790;21.590;2023-02-08T11:03:26;16.20;;;9.10;;
51523;SDS011;37610;51.790;21.590;2023-02-08T11:11:34;10.70;;;6.00;;
51523;SDS011;37610;51.790;21.590;2023-02-08T11:15:37;15.80;;;6.50;;
51523;SDS011;37610;51.790;21.590;2023-02-08T11:19:40;21.90;;;11.80;;
51523;SDS011;37610;51.790;21.590;2023-02-08T11:23:48;16.70;;;8.70;;
51523;SDS011;37610;51.790;21.590;2023-02-08T11:27:51;22.90;;;8.20;;
51523;SDS011;37610;51.790;21.590;2023-02-08T11:31:57;15.80;;;9.20;;
51523;SDS011;37610;51.790;21.590;2023-02-08T11:36:05;19.50;;;10.60;;
51523;SDS011;37610;51.790;21.590;2023-02-08T11:40:14;28.40;;;13.00;;
51523;SDS011;37610;51.790;21.590;2023-02-08T11:44:18;18.70;;;8.50;;
51523;SDS011;37610;51.790;21.590;2023-02-08T11:52:25;15.30;;;7.10;;
51523;SDS011;37610;51.790;21.590;2023-02-08T11:56:31;25.50;;;12.00;;
51523;SDS011;37610;51.790;21.590;2023-02-08T12:00:34;18.80;;;9.20;;
51523;SDS011;37610;51.790;21.590;2023-02-08T12:04:36;40.90;;;17.50;;
51523;SDS011;37610;51.790;21.590;2023-02-08T12:13:07;21.60;;;11.30;;
51523;SDS011;37610;51.790;21.590;2023-02-08T12:21:28;21.90;;;14.90;;
51523;SDS011;37610;51.790;21.590;2023-02-08T12:29:39;29.60;;;16.40;;
51523;SDS011;37610;51.790;21.590;2023-02-08T12:33:58;37.70;;;19.60;;
51523;SDS011;37610;51.790;21.590;2023-02-08T12:58:47;30.10;;;16.10;;
51523;SDS011;37610;51.790;21.590;2023-02-08T13:07:13;62.60;;;31.30;;
51523;SDS011;37610;51.790;21.590;2023-02-08T13:11:22;44.50;;;22.70;;
51523;SDS011;37610;51.790;21.590;2023-02-08T13:15:26;63.80;;;31.20;;
51523;SDS011;37610;51.790;21.590;2023-02-08T13:23:36;40.30;;;21.50;;
51523;SDS011;37610;51.790;21.590;2023-02-08T13:27:38;26.60;;;14.10;;
51523;SDS011;37610;51.790;21.590;2023-02-08T13:31:40;49.20;;;24.10;;
51523;SDS011;37610;51.790;21.590;2023-02-08T13:35:45;117.30;;;47.30;;
51523;SDS011;37610;51.790;21.590;2023-02-08T13:39:50;365.00;;;117.10;;
51523;SDS011;37610;51.790;21.590;2023-02-08T13:48:03;161.00;;;52.60;;
51523;SDS011;37610;51.790;21.590;2023-02-08T13:52:06;110.90;;;35.90;;
51523;SDS011;37610;51.790;21.590;2023-02-08T13:56:08;72.70;;;29.20;;
51523;SDS011;37610;51.790;21.590;2023-02-08T14:04:25;104.90;;;36.50;;
51523;SDS011;37610;51.790;21.590;2023-02-08T14:08:47;138.40;;;45.30;;
51523;SDS011;37610;51.790;21.590;2023-02-08T14:17:10;144.60;;;60.70;;
51523;SDS011;37610;51.790;21.590;2023-02-08T14:21:22;130.10;;;52.50;;
51523;SDS011;37610;51.790;21.590;2023-02-08T14:25:29;113.40;;;44.20;;
51523;SDS011;37610;51.790;21.590;2023-02-08T14:29:31;161.90;;;63.80;;
51523;SDS011;37610;51.790;21.590;2023-02-08T14:33:34;66.10;;;26.20;;
51523;SDS011;37610;51.790;21.590;2023-02-08T14:41:48;61.10;;;27.20;;
51523;SDS011;37610;51.790;21.590;2023-02-08T14:45:51;74.60;;;35.50;;
51523;SDS011;37610;51.790;21.590;2023-02-08T14:50:04;130.70;;;58.10;;
51523;SDS011;37610;51.790;21.590;2023-02-08T14:54:20;284.30;;;136.10;;
51523;SDS011;37610;51.790;21.590;2023-02-08T14:58:33;265.80;;;146.60;;
51523;SDS011;37610;51.790;21.590;2023-02-08T15:02:35;73.30;;;51.30;;
51523;SDS011;37610;51.790;21.590;2023-02-08T15:11:01;221.70;;;119.90;;
51523;SDS011;37610;51.790;21.590;2023-02-08T15:15:03;302.80;;;145.40;;
51523;SDS011;37610;51.790;21.590;2023-02-08T15:19:08;299.70;;;143.70;;
51523;SDS011;37610;51.790;21.590;2023-02-08T15:23:20;209.20;;;102.20;;
51523;SDS011;37610;51.790;21.590;2023-02-08T15:27:23;128.80;;;57.20;;
51523;SDS011;37610;51.790;21.590;2023-02-08T15:31:28;135.60;;;67.30;;
51523;SDS011;37610;51.790;21.590;2023-02-08T15:35:33;169.90;;;81.50;;
51523;SDS011;37610;51.790;21.590;2023-02-08T15:39:52;138.20;;;61.00;;
51523;SDS011;37610;51.790;21.590;2023-02-08T15:44:29;137.00;;;57.90;;
51523;SDS011;37610;51.790;21.590;2023-02-08T15:48:22;203.20;;;82.40;;
51523;SDS011;37610;51.790;21.590;2023-02-08T15:52:26;219.00;;;91.90;;
51523;SDS011;37610;51.790;21.590;2023-02-08T15:56:29;183.20;;;75.60;;
51523;SDS011;37610;51.790;21.590;2023-02-08T16:00:33;245.10;;;95.20;;
51523;SDS011;37610;51.790;21.590;2023-02-08T16:04:44;313.10;;;125.10;;
51523;SDS011;37610;51.790;21.590;2023-02-08T16:08:48;250.10;;;97.10;;
51523;SDS011;37610;51.790;21.590;2023-02-08T16:12:52;236.50;;;93.80;;
51523;SDS011;37610;51.790;21.590;2023-02-08T16:16:54;257.60;;;96.20;;
51523;SDS011;37610;51.790;21.590;2023-02-08T16:33:23;310.50;;;120.30;;
51523;SDS011;37610;51.790;21.590;2023-02-08T16:37:26;309.90;;;114.20;;
51523;SDS011;37610;51.790;21.590;2023-02-08T16:41:44;285.70;;;108.10;;
51523;SDS011;37610;51.790;21.590;2023-02-08T16:50:11;246.70;;;94.20;;
51523;SDS011;37610;51.790;21.590;2023-02-08T16:54:14;229.80;;;98.30;;
51523;SDS011;37610;51.790;21.590;2023-02-08T16:58:16;256.50;;;113.60;;
51523;SDS011;37610;51.790;21.590;2023-02-08T17:02:18;260.40;;;113.20;;
51523;SDS011;37610;51.790;21.590;2023-02-08T17:10:29;327.70;;;137.70;;
51523;SDS011;37610;51.790;21.590;2023-02-08T17:14:30;302.90;;;125.10;;
51523;SDS011;37610;51.790;21.590;2023-02-08T17:18:32;307.20;;;124.30;;
51523;SDS011;37610;51.790;21.590;2023-02-08T17:22:33;289.70;;;119.20;;
51523;SDS011;37610;51.790;21.590;2023-02-08T17:26:44;305.50;;;120.30;;
51523;SDS011;37610;51.790;21.590;2023-02-08T17:30:46;325.60;;;125.30;;
51523;SDS011;37610;51.790;21.590;2023-02-08T17:34:47;421.70;;;174.60;;
51523;SDS011;37610;51.790;21.590;2023-02-08T17:38:49;388.40;;;167.20;;
51523;SDS011;37610;51.790;21.590;2023-02-08T17:42:50;280.40;;;113.70;;
51523;SDS011;37610;51.790;21.590;2023-02-08T17:46:52;260.70;;;102.90;;
51523;SDS011;37610;51.790;21.590;2023-02-08T17:50:53;218.30;;;88.00;;
51523;SDS011;37610;51.790;21.590;2023-02-08T17:54:55;227.30;;;91.80;;
51523;SDS011;37610;51.790;21.590;2023-02-08T17:58:56;319.40;;;124.10;;
51523;SDS011;37610;51.790;21.590;2023-02-08T18:03:01;287.50;;;110.80;;
51523;SDS011;37610;51.790;21.590;2023-02-08T18:07:03;230.70;;;98.40;;
51523;SDS011;37610;51.790;21.590;2023-02-08T18:11:05;324.70;;;132.70;;
51523;SDS011;37610;51.790;21.590;2023-02-08T18:15:08;289.80;;;116.00;;
51523;SDS011;37610;51.790;21.590;2023-02-08T18:19:09;532.40;;;207.50;;
51523;SDS011;37610;51.790;21.590;2023-02-08T18:23:11;408.50;;;143.90;;
51523;SDS011;37610;51.790;21.590;2023-02-08T18:27:13;344.70;;;116.10;;
51523;SDS011;37610;51.790;21.590;2023-02-08T18:31:15;425.80;;;167.70;;
51523;SDS011;37610;51.790;21.590;2023-02-08T18:35:19;341.80;;;120.70;;
51523;SDS011;37610;51.790;21.590;2023-02-08T18:39:21;306.90;;;115.60;;
51523;SDS011;37610;51.790;21.590;2023-02-08T18:43:24;226.30;;;78.70;;
51523;SDS011;37610;51.790;21.590;2023-02-08T18:47:27;234.10;;;78.50;;
51523;SDS011;37610;51.790;21.590;2023-02-08T18:51:29;188.50;;;69.90;;
51523;SDS011;37610;51.790;21.590;2023-02-08T18:55:32;386.10;;;123.20;;
51523;SDS011;37610;51.790;21.590;2023-02-08T18:59:34;282.50;;;101.80;;
51523;SDS011;37610;51.790;21.590;2023-02-08T19:03:35;241.00;;;88.50;;
51523;SDS011;37610;51.790;21.590;2023-02-08T19:07:38;191.30;;;66.10;;
51523;SDS011;37610;51.790;21.590;2023-02-08T19:11:40;183.70;;;64.30;;
51523;SDS011;37610;51.790;21.590;2023-02-08T19:15:41;247.50;;;77.60;;
51523;SDS011;37610;51.790;21.590;2023-02-08T19:19:43;332.40;;;110.80;;
51523;SDS011;37610;51.790;21.590;2023-02-08T19:23:49;234.50;;;84.50;;
51523;SDS011;37610;51.790;21.590;2023-02-08T19:27:52;256.30;;;93.60;;
51523;SDS011;37610;51.790;21.590;2023-02-08T19:31:53;255.10;;;93.30;;
51523;SDS011;37610;51.790;21.590;2023-02-08T19:35:54;280.70;;;102.00;;
51523;SDS011;37610;51.790;21.590;2023-02-08T19:39:56;209.10;;;82.00;;
51523;SDS011;37610;51.790;21.590;2023-02-08T19:43:58;205.50;;;77.20;;
51523;SDS011;37610;51.790;21.590;2023-02-08T19:47:59;219.50;;;75.60;;
51523;SDS011;37610;51.790;21.590;2023-02-08T19:52:01;169.30;;;65.80;;
51523;SDS011;37610;51.790;21.590;2023-02-08T19:56:04;199.60;;;81.20;;
51523;SDS011;37610;51.790;21.590;2023-02-08T20:00:06;181.30;;;71.70;;
51523;SDS011;37610;51.790;21.590;2023-02-08T20:04:07;256.00;;;102.40;;
51523;SDS011;37610;51.790;21.590;2023-02-08T20:08:09;306.20;;;105.30;;
51523;SDS011;37610;51.790;21.590;2023-02-08T20:12:11;282.60;;;115.00;;
51523;SDS011;37610;51.790;21.590;2023-02-08T20:16:12;278.30;;;107.70;;
51523;SDS011;37610;51.790;21.590;2023-02-08T20:20:14;336.90;;;115.70;;
51523;SDS011;37610;51.790;21.590;2023-02-08T20:24:15;244.50;;;87.70;;
51523;SDS011;37610;51.790;21.590;2023-02-08T20:28:17;260.60;;;99.80;;
51523;SDS011;37610;51.790;21.590;2023-02-08T20:32:19;198.10;;;71.00;;
51523;SDS011;37610;51.790;21.590;2023-02-08T20:36:21;173.40;;;65.60;;
51523;SDS011;37610;51.790;21.590;2023-02-08T20:40:23;154.30;;;56.00;;
51523;SDS011;37610;51.790;21.590;2023-02-08T20:44:25;155.90;;;55.50;;
51523;SDS011;37610;51.790;21.590;2023-02-08T20:52:30;180.80;;;65.80;;
51523;SDS011;37610;51.790;21.590;2023-02-08T20:56:33;147.70;;;57.50;;
51523;SDS011;37610;51.790;21.590;2023-02-08T21:00:35;120.10;;;46.20;;
51523;SDS011;37610;51.790;21.590;2023-02-08T21:04:37;100.10;;;39.90;;
51523;SDS011;37610;51.790;21.590;2023-02-08T21:08:38;152.10;;;62.10;;
51523;SDS011;37610;51.790;21.590;2023-02-08T21:12:40;263.70;;;85.30;;
51523;SDS011;37610;51.790;21.590;2023-02-08T21:16:41;196.10;;;74.10;;
51523;SDS011;37610;51.790;21.590;2023-02-08T21:20:42;174.80;;;71.50;;
51523;SDS011;37610;51.790;21.590;2023-02-08T21:24:44;177.40;;;69.40;;
51523;SDS011;37610;51.790;21.590;2023-02-08T21:28:45;210.70;;;81.10;;
51523;SDS011;37610;51.790;21.590;2023-02-08T21:32:47;214.80;;;85.30;;
51523;SDS011;37610;51.790;21.590;2023-02-08T21:36:48;182.90;;;69.80;;
51523;SDS011;37610;51.790;21.590;2023-02-08T21:40:50;171.80;;;63.50;;
51523;SDS011;37610;51.790;21.590;2023-02-08T21:44:51;187.70;;;66.60;;
51523;SDS011;37610;51.790;21.590;2023-02-08T21:48:53;185.50;;;75.30;;
51523;SDS011;37610;51.790;21.590;2023-02-08T21:53:14;205.30;;;76.10;;
51523;SDS011;37610;51.790;21.590;2023-02-08T21:57:45;201.50;;;74.30;;
51523;SDS011;37610;51.790;21.590;2023-02-08T22:01:46;197.60;;;75.80;;
51523;SDS011;37610;51.790;21.590;2023-02-08T22:05:47;225.20;;;83.80;;
51523;SDS011;37610;51.790;21.590;2023-02-08T22:10:08;298.70;;;108.50;;
51523;SDS011;37610;51.790;21.590;2023-02-08T22:14:10;241.00;;;89.30;;
51523;SDS011;37610;51.790;21.590;2023-02-08T22:18:12;192.10;;;72.80;;
51523;SDS011;37610;51.790;21.590;2023-02-08T22:22:13;172.60;;;66.70;;
51523;SDS011;37610;51.790;21.590;2023-02-08T22:26:15;146.00;;;58.60;;
51523;SDS011;37610;51.790;21.590;2023-02-08T22:30:17;129.90;;;49.90;;
51523;SDS011;37610;51.790;21.590;2023-02-08T22:34:18;148.70;;;57.50;;
51523;SDS011;37610;51.790;21.590;2023-02-08T22:38:20;116.40;;;47.00;;
51523;SDS011;37610;51.790;21.590;2023-02-08T22:42:22;111.90;;;43.00;;
51523;SDS011;37610;51.790;21.590;2023-02-08T22:46:23;98.50;;;35.60;;
51523;SDS011;37610;51.790;21.590;2023-02-08T22:50:25;84.90;;;34.40;;
51523;SDS011;37610;51.790;21.590;2023-02-08T22:54:26;108.70;;;42.20;;
51523;SDS011;37610;51.790;21.590;2023-02-08T22:58:28;114.30;;;45.00;;
51523;SDS011;37610;51.790;21.590;2023-02-08T23:02:29;84.70;;;34.70;;
51523;SDS011;37610;51.790;21.590;2023-02-08T23:06:31;99.30;;;39.00;;
51523;SDS011;37610;51.790;21.590;2023-02-08T23:10:32;108.40;;;42.70;;
51523;SDS011;37610;51.790;21.590;2023-02-08T23:14:34;96.00;;;36.10;;
51523;SDS011;37610;51.790;21.590;2023-02-08T23:18:35;101.20;;;40.20;;
51523;SDS011;37610;51.790;21.590;2023-02-08T23:22:37;75.70;;;31.40;;
51523;SDS011;37610;51.790;21.590;2023-02-08T23:26:38;77.00;;;32.30;;
51523;SDS011;37610;51.790;21.590;2023-02-08T23:30:40;73.80;;;29.70;;
51523;SDS011;37610;51.790;21.590;2023-02-08T23:34:42;69.00;;;29.20;;
51523;SDS011;37610;51.790;21.590;2023-02-08T23:38:44;59.70;;;25.40;;
51523;SDS011;37610;51.790;21.590;2023-02-08T23:42:45;90.00;;;36.80;;
51523;SDS011;37610;51.790;21.590;2023-02-08T23:46:46;71.40;;;28.90;;
51523;SDS011;37610;51.790;21.590;2023-02-08T23:50:58;75.30;;;30.40;;
51523;SDS011;37610;51.790;21.590;2023-02-08T23:55:00;67.00;;;25.80;;
51523;SDS011;37610;51.790;21.590;2023-02-08T23:59:01;55.70;;;23.20;;
